createdAt,value
2018-02-15T00:01:26.644Z,67.20
2018-02-15T00:03:54.145Z,67.10
2018-02-15T00:06:21.633Z,67.00
2018-02-15T00:08:49.136Z,67.10
2018-02-15T00:11:16.614Z,66.80
2018-02-15T00:13:44.151Z,66.80
2018-02-15T00:16:12.028Z,66.40
2018-02-15T00:18:39.528Z,66.40
2018-02-15T00:21:07.002Z,66.50
2018-02-15T00:23:34.503Z,66.50
2018-02-15T00:26:01.989Z,66.60
2018-02-15T00:28:29.492Z,66.60
2018-02-15T00:30:57.385Z,66.00
2018-02-15T00:33:24.893Z,66.00
2018-02-15T00:35:52.374Z,66.00
2018-02-15T00:38:19.860Z,66.00
2018-02-15T00:40:47.364Z,65.70
2018-02-15T00:43:14.848Z,66.00
2018-02-15T00:45:42.352Z,66.00
2018-02-15T00:48:09.836Z,66.00
2018-02-15T00:50:37.336Z,66.00
2018-02-15T00:53:04.821Z,66.00
2018-02-15T00:55:32.324Z,66.20
2018-02-15T00:57:59.808Z,65.80
2018-02-15T01:00:27.308Z,66.10
2018-02-15T01:02:55.181Z,66.00
2018-02-15T01:05:22.681Z,66.10
2018-02-15T01:07:50.183Z,66.00
2018-02-15T01:10:17.692Z,65.50
2018-02-15T01:12:45.177Z,65.60
2018-02-15T01:15:13.080Z,65.80
2018-02-15T01:17:40.558Z,65.80
2018-02-15T01:20:08.051Z,65.60
2018-02-15T01:22:35.532Z,65.60
2018-02-15T01:25:03.042Z,65.60
2018-02-15T01:27:30.910Z,65.30
2018-02-15T01:29:58.419Z,65.40
2018-02-15T01:32:25.909Z,65.10
2018-02-15T01:34:53.403Z,65.30
2018-02-15T01:37:20.890Z,65.20
2018-02-15T01:39:48.383Z,65.40
2018-02-15T01:42:15.865Z,65.40
2018-02-15T01:44:43.408Z,65.50
2018-02-15T01:47:11.295Z,65.40
2018-02-15T01:52:42.211Z,65.60
2018-02-15T01:55:09.744Z,65.20
2018-02-15T01:57:37.623Z,65.70
2018-02-15T02:00:05.520Z,65.70
2018-02-15T02:02:33.081Z,65.70
2018-02-15T02:05:00.980Z,65.90
2018-02-15T02:07:28.464Z,66.00
2018-02-15T02:09:55.972Z,66.00
2018-02-15T02:12:23.494Z,65.70
2018-02-15T02:14:50.992Z,65.80
2018-02-15T02:17:18.479Z,65.90
2018-02-15T02:19:45.980Z,66.00
2018-02-15T02:22:13.860Z,66.20
2018-02-15T02:24:41.740Z,65.90
2018-02-15T02:27:09.279Z,66.00
2018-02-15T02:29:36.754Z,65.80
2018-02-15T02:32:04.255Z,66.00
2018-02-15T02:34:32.144Z,66.40
2018-02-15T02:37:00.043Z,66.00
2018-02-15T02:39:27.528Z,66.00
2018-02-15T02:41:55.052Z,66.30
2018-02-15T02:44:22.932Z,65.80
2018-02-15T02:46:50.823Z,66.30
2018-02-15T02:49:18.767Z,65.60
2018-02-15T02:51:46.354Z,65.60
2018-02-15T02:54:13.837Z,66.00
2018-02-15T02:56:41.737Z,66.00
2018-02-15T02:59:09.224Z,66.00
2018-02-15T03:01:36.715Z,65.90
2018-02-15T03:04:04.195Z,66.20
2018-02-15T03:06:31.695Z,66.30
2018-02-15T03:08:59.267Z,65.90
2018-02-15T03:11:26.771Z,66.00
2018-02-15T03:13:54.312Z,66.00
2018-02-15T03:16:22.213Z,65.90
2018-02-15T03:18:49.696Z,65.90
2018-02-15T03:21:17.223Z,66.20
2018-02-15T03:23:44.708Z,65.90
2018-02-15T03:26:12.613Z,66.30
2018-02-15T03:28:40.100Z,66.30
2018-02-15T03:31:07.609Z,66.40
2018-02-15T03:33:35.200Z,66.30
2018-02-15T03:36:03.097Z,66.80
2018-02-15T03:38:30.652Z,66.90
2018-02-15T03:40:58.560Z,68.90
2018-02-15T03:43:26.044Z,68.90
2018-02-15T03:45:53.547Z,70.10
2018-02-15T03:48:21.032Z,71.60
2018-02-15T03:50:48.612Z,73.00
2018-02-15T03:53:16.104Z,73.90
2018-02-15T03:55:43.584Z,75.40
2018-02-15T03:58:11.080Z,77.00
2018-02-15T04:00:38.558Z,78.00
2018-02-15T04:03:06.060Z,79.30
2018-02-15T04:05:33.548Z,80.80
2018-02-15T04:08:01.451Z,83.50
2018-02-15T04:10:28.942Z,83.50
2018-02-15T04:12:56.447Z,83.90
2018-02-15T04:15:23.945Z,85.00
2018-02-15T04:17:51.448Z,85.90
2018-02-15T04:20:18.927Z,87.10
2018-02-15T04:22:46.427Z,87.60
2018-02-15T04:25:14.008Z,88.00
2018-02-15T04:27:41.513Z,88.10
2018-02-15T04:30:08.990Z,88.60
2018-02-15T04:32:36.495Z,88.90
2018-02-15T04:35:03.985Z,89.50
2018-02-15T04:37:31.488Z,89.90
2018-02-15T04:39:58.975Z,90.40
2018-02-15T04:42:26.481Z,90.80
2018-02-15T04:44:53.958Z,91.30
2018-02-15T04:47:21.458Z,91.80
2018-02-15T04:49:49.345Z,92.10
2018-02-15T04:52:16.852Z,92.10
2018-02-15T04:54:44.360Z,92.60
2018-02-15T04:57:11.859Z,92.60
2018-02-15T04:59:39.344Z,92.40
2018-02-15T05:02:06.848Z,92.30
2018-02-15T05:04:34.337Z,92.30
2018-02-15T05:07:01.923Z,92.60
2018-02-15T05:09:29.908Z,93.20
2018-02-15T05:11:57.819Z,93.30
2018-02-15T05:14:25.312Z,93.30
2018-02-15T05:16:52.820Z,93.20
2018-02-15T05:19:20.333Z,93.60
2018-02-15T05:21:47.815Z,93.90
2018-02-15T05:24:15.323Z,94.00
2018-02-15T05:26:42.802Z,94.40
2018-02-15T05:29:10.300Z,94.50
2018-02-15T05:31:37.795Z,94.40
2018-02-15T05:34:05.295Z,94.90
2018-02-15T05:36:32.771Z,94.90
2018-02-15T05:39:00.266Z,94.70
2018-02-15T05:41:28.245Z,95.30
2018-02-15T05:43:56.249Z,94.60
2018-02-15T05:46:23.740Z,94.60
2018-02-15T05:48:51.260Z,94.60
2018-02-15T05:51:18.837Z,94.40
2018-02-15T05:53:46.826Z,94.60
2018-02-15T05:56:14.711Z,95.40
2018-02-15T05:58:42.624Z,95.70
2018-02-15T06:01:10.108Z,95.70
2018-02-15T06:03:37.608Z,95.90
2018-02-15T06:06:05.096Z,95.60
2018-02-15T06:08:33.020Z,95.80
2018-02-15T06:11:00.515Z,95.80
2018-02-15T06:13:28.020Z,95.90
2018-02-15T06:15:55.898Z,95.60
2018-02-15T06:18:23.797Z,95.60
2018-02-15T06:20:51.285Z,95.60
2018-02-15T06:23:18.779Z,95.90
2018-02-15T06:25:46.260Z,95.90
2018-02-15T06:28:13.765Z,95.60
2018-02-15T06:30:41.732Z,95.90
2018-02-15T06:33:09.222Z,95.90
2018-02-15T06:35:37.108Z,95.70
2018-02-15T06:38:04.616Z,95.70
2018-02-15T06:40:32.107Z,95.90
2018-02-15T06:42:59.601Z,96.10
2018-02-15T06:45:27.495Z,96.20
2018-02-15T06:47:54.980Z,96.10
2018-02-15T06:50:22.480Z,95.80
2018-02-15T06:52:49.963Z,95.70
2018-02-15T06:55:17.459Z,95.70
2018-02-15T06:57:44.936Z,95.70
2018-02-15T07:00:12.908Z,95.50
2018-02-15T07:02:40.392Z,95.50
2018-02-15T07:05:08.288Z,95.50
2018-02-15T07:07:35.774Z,95.50
2018-02-15T07:10:03.295Z,95.60
2018-02-15T07:12:30.770Z,95.80
2018-02-15T07:14:58.277Z,96.00
2018-02-15T07:17:25.768Z,96.00
2018-02-15T07:19:53.258Z,96.20
2018-02-15T07:22:20.760Z,96.20
2018-02-15T07:24:48.652Z,95.70
2018-02-15T07:27:16.532Z,95.20
2018-02-15T07:29:44.088Z,95.20
2018-02-15T07:32:11.996Z,95.20
2018-02-15T07:34:39.497Z,95.10
2018-02-15T07:37:06.979Z,94.80
2018-02-15T07:39:34.503Z,94.40
2018-02-15T07:42:01.983Z,93.80
2018-02-15T07:44:29.478Z,93.90
2018-02-15T07:46:56.968Z,93.90
2018-02-15T07:49:24.478Z,93.90
2018-02-15T07:51:51.985Z,93.80
2018-02-15T07:54:19.492Z,93.90
2018-02-15T07:56:46.975Z,94.20
2018-02-15T07:59:14.870Z,94.30
2018-02-15T08:01:42.753Z,94.20
2018-02-15T08:04:10.305Z,94.20
2018-02-15T08:06:38.191Z,94.10
2018-02-15T08:09:06.080Z,93.90
2018-02-15T08:11:33.974Z,93.90
2018-02-15T08:14:01.516Z,94.10
2018-02-15T08:16:29.416Z,93.80
2018-02-15T08:18:56.903Z,93.80
2018-02-15T08:21:24.404Z,93.80
2018-02-15T08:23:51.889Z,93.70
2018-02-15T08:26:19.392Z,93.70
2018-02-15T08:28:46.874Z,93.70
2018-02-15T08:31:14.366Z,93.60
2018-02-15T08:33:41.856Z,93.70
2018-02-15T08:36:09.350Z,93.80
2018-02-15T08:38:36.822Z,93.80
2018-02-15T08:41:04.324Z,93.80
2018-02-15T08:43:31.807Z,93.90
2018-02-15T08:45:59.330Z,94.10
2018-02-15T08:48:26.911Z,94.00
2018-02-15T08:50:54.803Z,94.10
2018-02-15T08:53:22.684Z,93.90
2018-02-15T08:55:50.609Z,94.00
2018-02-15T08:58:18.066Z,94.00
2018-02-15T09:00:45.573Z,93.80
2018-02-15T09:03:13.062Z,94.00
2018-02-15T09:05:40.960Z,93.90
2018-02-15T09:08:08.915Z,94.20
2018-02-15T09:10:36.417Z,94.20
2018-02-15T09:13:03.895Z,94.20
2018-02-15T09:15:31.440Z,94.50
2018-02-15T09:17:59.320Z,94.30
2018-02-15T09:20:26.849Z,94.30
2018-02-15T09:22:54.336Z,94.50
2018-02-15T09:25:21.843Z,94.30
2018-02-15T09:27:49.720Z,94.10
2018-02-15T09:30:17.615Z,93.80
2018-02-15T09:32:45.187Z,93.80
2018-02-15T09:35:12.743Z,94.30
2018-02-15T09:37:40.661Z,94.30
2018-02-15T09:40:08.156Z,94.30
2018-02-15T09:42:35.656Z,94.60
2018-02-15T09:45:03.535Z,94.20
2018-02-15T09:47:31.602Z,94.00
2018-02-15T09:49:59.523Z,94.10
2018-02-15T09:52:27.073Z,94.20
2018-02-15T09:54:54.568Z,94.20
2018-02-15T09:57:22.077Z,94.10
2018-02-15T09:59:49.560Z,94.30
2018-02-15T10:02:17.055Z,94.20
2018-02-15T10:04:44.936Z,94.60
2018-02-15T10:07:12.832Z,94.70
2018-02-15T10:09:40.316Z,94.70
2018-02-15T10:12:07.815Z,95.00
2018-02-15T10:14:35.304Z,94.80
2018-02-15T10:17:02.812Z,95.10
2018-02-15T10:19:30.294Z,94.80
2018-02-15T10:21:57.805Z,94.60
2018-02-15T10:24:26.085Z,94.60
2018-02-15T10:26:53.592Z,95.00
2018-02-15T10:29:21.085Z,95.00
2018-02-15T10:31:48.582Z,95.10
2018-02-15T10:34:16.059Z,95.10
2018-02-15T10:36:43.560Z,95.50
2018-02-15T10:39:11.144Z,95.40
2018-02-15T10:41:38.715Z,95.20
2018-02-15T10:44:06.205Z,94.80
2018-02-15T10:46:34.108Z,95.20
2018-02-15T10:49:01.588Z,95.20
2018-02-15T10:51:29.092Z,95.40
2018-02-15T10:53:56.571Z,95.50
2018-02-15T10:56:24.100Z,95.70
2018-02-15T10:58:51.620Z,95.80
2018-02-15T11:01:24.848Z,96.10
2018-02-15T11:03:57.956Z,96.20
2018-02-15T11:06:25.447Z,96.30
2018-02-15T11:08:52.932Z,96.50
2018-02-15T11:11:20.412Z,96.60
2018-02-15T11:13:47.933Z,96.50
2018-02-15T11:16:15.416Z,95.80
2018-02-15T11:18:42.934Z,96.10
2018-02-15T11:21:10.416Z,96.40
2018-02-15T11:23:37.948Z,96.30
2018-02-15T11:26:05.430Z,96.40
2018-02-15T11:28:33.036Z,95.90
2018-02-15T11:31:00.524Z,96.10
2018-02-15T11:33:28.500Z,96.40
2018-02-15T11:35:56.388Z,96.30
2018-02-15T11:38:24.296Z,96.30
2018-02-15T11:40:51.770Z,96.30
2018-02-15T11:43:19.392Z,96.30
2018-02-15T11:45:46.872Z,96.10
2018-02-15T11:48:14.974Z,96.20
2018-02-15T11:50:42.464Z,96.20
2018-02-15T11:53:10.120Z,96.20
2018-02-15T11:55:37.656Z,96.30
2018-02-15T11:58:05.266Z,96.50
2018-02-15T12:00:32.807Z,96.60
2018-02-15T12:03:00.304Z,96.20
2018-02-15T12:05:27.787Z,95.80
2018-02-15T12:07:55.936Z,95.70
2018-02-15T12:10:23.820Z,95.90
2018-02-15T12:12:52.220Z,96.00
2018-02-15T12:15:20.169Z,95.80
2018-02-15T12:17:47.696Z,95.80
2018-02-15T12:20:15.376Z,96.00
2018-02-15T12:22:42.876Z,96.40
2018-02-15T12:25:10.369Z,96.50
2018-02-15T12:27:37.878Z,96.50
2018-02-15T12:30:05.371Z,96.40
2018-02-15T12:32:32.863Z,96.80
2018-02-15T12:35:00.343Z,96.00
2018-02-15T12:37:27.869Z,95.40
2018-02-15T12:39:55.362Z,95.60
2018-02-15T12:42:22.848Z,95.70
2018-02-15T12:44:50.348Z,95.80
2018-02-15T12:47:18.228Z,95.90
2018-02-15T12:49:46.118Z,96.30
2018-02-15T12:52:13.996Z,96.40
2018-02-15T12:54:41.893Z,96.30
2018-02-15T12:57:09.384Z,96.30
2018-02-15T12:59:36.896Z,96.70
2018-02-15T13:02:04.389Z,96.70
2018-02-15T13:04:32.362Z,96.00
2018-02-15T13:06:59.841Z,96.00
2018-02-15T13:09:27.344Z,96.30
2018-02-15T13:11:54.828Z,96.40
2018-02-15T13:14:22.360Z,96.80
2018-02-15T13:16:56.030Z,96.50
2018-02-15T13:19:35.395Z,96.50
2018-02-15T13:24:57.100Z,96.90
2018-02-15T13:27:47.332Z,97.00
2018-02-15T13:30:14.959Z,96.70
2018-02-15T13:32:42.840Z,97.10
2018-02-15T13:35:10.780Z,96.80
2018-02-15T13:37:38.276Z,96.80
2018-02-15T13:40:05.771Z,97.10
2018-02-15T13:42:33.736Z,97.50
2018-02-15T13:45:01.638Z,97.50
2018-02-15T13:47:29.123Z,97.50
2018-02-15T13:49:56.624Z,97.00
2018-02-15T13:52:24.107Z,97.10
2018-02-15T13:54:51.602Z,96.80
2018-02-15T13:57:19.485Z,97.20
2018-02-15T13:59:47.456Z,97.00
2018-02-15T14:02:14.930Z,97.00
2018-02-15T14:04:42.817Z,93.40
2018-02-15T14:07:10.788Z,81.10
2018-02-15T14:09:38.281Z,81.10
2018-02-15T14:12:05.759Z,83.70
2018-02-15T14:14:33.255Z,87.50
2018-02-15T14:17:00.775Z,89.90
2018-02-15T14:19:28.673Z,93.10
2018-02-15T14:21:56.150Z,93.10
2018-02-15T14:24:23.648Z,94.30
2018-02-15T14:26:51.135Z,94.80
2018-02-15T14:29:18.649Z,95.40
2018-02-15T14:31:46.532Z,95.80
2018-02-15T14:34:14.016Z,95.80
2018-02-15T14:36:41.547Z,95.90
2018-02-15T14:39:09.028Z,96.10
2018-02-15T14:41:36.922Z,96.10
2018-02-15T14:44:04.796Z,96.50
2018-02-15T14:46:32.691Z,96.50
2018-02-15T14:49:00.176Z,96.50
2018-02-15T14:51:27.683Z,96.70
2018-02-15T14:53:55.169Z,96.70
2018-02-15T14:56:22.671Z,97.00
2018-02-15T14:58:50.242Z,93.30
2018-02-15T15:01:17.752Z,87.20
2018-02-15T15:03:45.231Z,88.20
2018-02-15T15:06:12.732Z,90.60
2018-02-15T15:08:40.711Z,93.40
2018-02-15T15:11:08.345Z,93.40
2018-02-15T15:13:35.823Z,94.60
2018-02-15T15:16:03.333Z,95.00
2018-02-15T15:18:31.315Z,95.20
2018-02-15T15:20:59.224Z,95.40
2018-02-15T15:23:26.717Z,95.50
2018-02-15T15:25:54.223Z,95.70
2018-02-15T15:28:21.707Z,95.70
2018-02-15T15:30:49.620Z,96.30
2018-02-15T15:33:17.099Z,96.30
2018-02-15T15:35:44.604Z,96.20
2018-02-15T15:38:12.079Z,96.60
2018-02-15T15:40:39.579Z,96.60
2018-02-15T15:43:07.465Z,96.50
2018-02-15T15:45:35.007Z,96.50
2018-02-15T15:48:02.488Z,96.00
2018-02-15T15:50:30.392Z,96.70
2018-02-15T15:52:57.880Z,96.70
2018-02-15T15:55:25.379Z,96.40
2018-02-15T15:57:52.866Z,96.60
2018-02-15T16:00:20.352Z,96.60
2018-02-15T16:02:48.248Z,95.80
2018-02-15T16:05:15.728Z,95.70
2018-02-15T16:07:43.273Z,93.90
2018-02-15T16:10:11.162Z,92.20
2018-02-15T16:12:39.055Z,93.30
2018-02-15T16:15:06.541Z,93.30
2018-02-15T16:17:34.045Z,94.20
2018-02-15T16:20:01.528Z,94.60
2018-02-15T16:22:29.203Z,95.00
2018-02-15T16:24:56.682Z,95.60
2018-02-15T16:27:24.179Z,95.90
2018-02-15T16:29:51.663Z,96.00
2018-02-15T16:32:19.159Z,95.80
2018-02-15T16:34:46.645Z,95.90
2018-02-15T16:37:14.146Z,96.40
2018-02-15T16:39:42.023Z,96.80
2018-02-15T16:42:09.920Z,97.10
2018-02-15T16:44:37.399Z,97.00
2018-02-15T16:47:04.906Z,97.20
2018-02-15T16:49:32.399Z,97.20
2018-02-15T16:51:59.900Z,97.00
2018-02-15T16:54:27.384Z,97.10
2018-02-15T16:56:54.888Z,97.30
2018-02-15T16:59:22.373Z,97.40
2018-02-15T17:01:49.884Z,97.40
2018-02-15T17:04:17.380Z,97.20
2018-02-15T17:06:44.875Z,97.00
2018-02-15T17:09:12.364Z,96.70
2018-02-15T17:11:39.865Z,97.00
2018-02-15T17:14:07.348Z,96.90
2018-02-15T17:16:34.869Z,97.10
2018-02-15T17:19:02.359Z,97.40
2018-02-15T17:21:30.255Z,97.30
2018-02-15T17:23:57.804Z,97.30
2018-02-15T17:26:25.710Z,97.10
2018-02-15T17:28:53.268Z,97.10
2018-02-15T17:31:21.148Z,97.60
2018-02-15T17:33:49.052Z,97.40
2018-02-15T17:36:16.544Z,97.40
2018-02-15T17:38:44.048Z,97.50
2018-02-15T17:41:11.542Z,97.00
2018-02-15T17:43:39.512Z,96.50
2018-02-15T17:46:07.404Z,96.20
2018-02-15T17:48:35.295Z,96.40
2018-02-15T17:51:02.771Z,96.40
2018-02-15T17:53:30.279Z,96.20
2018-02-15T17:55:58.060Z,96.30
2018-02-15T17:58:25.555Z,96.20
2018-02-15T18:00:53.040Z,96.00
2018-02-15T18:03:20.944Z,96.20
2018-02-15T18:05:48.488Z,96.20
2018-02-15T18:08:16.466Z,96.10
2018-02-15T18:10:44.344Z,96.10
2018-02-15T18:13:11.872Z,96.10
2018-02-15T18:15:39.364Z,95.90
2018-02-15T18:18:06.863Z,96.10
2018-02-15T18:20:34.740Z,96.30
2018-02-15T18:23:02.637Z,96.80
2018-02-15T18:25:30.110Z,96.80
2018-02-15T18:27:57.611Z,96.90
2018-02-15T18:30:25.092Z,97.10
2018-02-15T18:32:52.587Z,97.70
2018-02-15T18:35:20.071Z,98.10
2018-02-15T18:37:48.048Z,97.70
2018-02-15T18:40:15.522Z,97.70
2018-02-15T18:42:43.441Z,97.10
2018-02-15T18:45:10.960Z,97.00
2018-02-15T18:47:38.571Z,97.40
2018-02-15T18:50:06.103Z,98.40
2018-02-15T18:52:33.713Z,98.30
2018-02-15T18:55:01.337Z,98.00
2018-02-15T18:57:28.829Z,98.10
2018-02-15T18:59:56.350Z,98.10
2018-02-15T19:02:23.823Z,97.80
2018-02-15T19:04:51.443Z,97.60
2018-02-15T19:07:18.935Z,97.90
2018-02-15T19:09:46.892Z,97.80
2018-02-15T19:12:14.376Z,97.80
2018-02-15T19:14:41.876Z,97.70
2018-02-15T19:17:09.367Z,97.50
2018-02-15T19:19:36.875Z,97.40
2018-02-15T19:22:04.453Z,97.30
2018-02-15T19:24:32.427Z,97.30
2018-02-15T19:26:59.916Z,97.30
2018-02-15T19:29:27.913Z,97.40
2018-02-15T19:31:55.408Z,97.40
2018-02-15T19:34:22.992Z,97.40
2018-02-15T19:36:50.472Z,97.80
2018-02-15T19:39:17.974Z,97.70
2018-02-15T19:41:45.847Z,97.10
2018-02-15T19:44:13.352Z,97.10
2018-02-15T19:46:40.840Z,97.00
2018-02-15T19:49:08.509Z,96.50
2018-02-15T19:51:36.045Z,96.50
2018-02-15T19:54:03.648Z,96.50
2018-02-15T19:56:31.140Z,96.40
2018-02-15T19:58:58.785Z,96.40
2018-02-15T20:01:26.313Z,96.10
2018-02-15T20:03:53.824Z,95.60
2018-02-15T20:06:21.315Z,95.60
2018-02-15T20:08:48.969Z,95.70
2018-02-15T20:11:16.495Z,95.50
2018-02-15T20:13:44.214Z,95.50
2018-02-15T20:16:11.752Z,95.60
2018-02-15T20:18:39.250Z,95.70
2018-02-15T20:21:07.144Z,95.60
2018-02-15T20:23:34.644Z,95.60
2018-02-15T20:26:07.872Z,95.60
2018-02-15T20:28:35.487Z,95.60
2018-02-15T20:31:02.997Z,95.80
2018-02-15T20:33:30.632Z,95.70
2018-02-15T20:35:58.179Z,95.70
2018-02-15T20:38:31.919Z,95.60
2018-02-15T20:40:59.493Z,95.60
2018-02-15T20:43:27.402Z,96.60
2018-02-15T20:45:54.902Z,96.90
2018-02-15T20:48:22.388Z,97.00
2018-02-15T20:50:55.693Z,97.10
2018-02-15T20:53:28.976Z,97.10
2018-02-15T20:55:56.572Z,97.30
2018-02-15T20:58:24.056Z,97.10
2018-02-15T21:00:52.044Z,97.40
2018-02-15T21:03:19.916Z,97.30
2018-02-15T21:05:47.913Z,97.10
2018-02-15T21:08:15.455Z,97.10
2018-02-15T21:10:42.950Z,97.00
2018-02-15T21:13:10.920Z,96.40
2018-02-15T21:15:38.815Z,96.20
2018-02-15T21:18:06.369Z,96.20
2018-02-15T21:20:34.304Z,96.00
2018-02-15T21:23:01.796Z,96.00
2018-02-15T21:25:29.308Z,96.00
2018-02-15T21:27:57.197Z,95.90
2018-02-15T21:30:24.712Z,95.90
2018-02-15T21:32:52.204Z,96.10
2018-02-15T21:35:19.816Z,96.00
2018-02-15T21:37:47.301Z,96.00
2018-02-15T21:40:14.904Z,95.70
2018-02-15T21:42:42.504Z,95.60
2018-02-15T21:45:10.402Z,95.70
2018-02-15T21:47:37.947Z,95.70
2018-02-15T21:50:05.438Z,95.60
2018-02-15T21:52:33.336Z,95.60
2018-02-15T21:55:00.827Z,95.60
2018-02-15T21:57:28.331Z,95.40
2018-02-15T21:59:55.965Z,95.60
2018-02-15T22:02:23.488Z,95.60
2018-02-15T22:04:51.464Z,95.20
2018-02-15T22:07:18.973Z,95.20
2018-02-15T22:09:46.546Z,95.30
2018-02-15T22:12:14.044Z,95.40
2018-02-15T22:14:41.680Z,95.60
2018-02-15T22:17:09.184Z,95.80
2018-02-15T22:19:36.878Z,95.60
2018-02-15T22:22:04.377Z,95.40
2018-02-15T22:24:32.264Z,95.20
2018-02-15T22:27:00.158Z,95.30
2018-02-15T22:29:27.647Z,95.30
2018-02-15T22:31:55.143Z,95.10
2018-02-15T22:34:22.632Z,95.20
2018-02-15T22:36:50.127Z,95.20
2018-02-15T22:39:18.021Z,95.40
2018-02-15T22:41:45.514Z,95.40
2018-02-15T22:44:13.016Z,95.30
2018-02-15T22:46:40.540Z,95.20
2018-02-15T22:49:08.028Z,94.60
2018-02-15T22:51:35.535Z,94.70
2018-02-15T22:54:03.014Z,94.80
2018-02-15T22:56:30.520Z,94.60
2018-02-15T22:58:58.008Z,94.40
2018-02-15T23:01:25.508Z,94.50
2018-02-15T23:03:53.072Z,94.40
2018-02-15T23:06:20.572Z,94.40
2018-02-15T23:08:48.056Z,94.30
2018-02-15T23:11:15.952Z,94.70
2018-02-15T23:13:43.436Z,94.70
2018-02-15T23:16:10.930Z,94.70
2018-02-15T23:18:38.441Z,94.40
2018-02-15T23:21:06.415Z,95.10
2018-02-15T23:23:33.915Z,95.10
2018-02-15T23:26:01.400Z,95.30
2018-02-15T23:28:28.926Z,95.00
2018-02-15T23:30:56.503Z,95.00
2018-02-15T23:33:24.009Z,95.10
2018-02-15T23:35:51.509Z,95.00
2018-02-15T23:38:19.012Z,95.30
2018-02-15T23:40:46.491Z,95.60
2018-02-15T23:43:14.387Z,96.20
2018-02-15T23:45:41.880Z,96.20
2018-02-15T23:48:09.430Z,95.80
2018-02-15T23:50:36.911Z,95.80
2018-02-15T23:53:04.415Z,95.80
2018-02-15T23:55:31.903Z,96.20
2018-02-15T23:57:59.407Z,96.30
